Thunderstorms From: 26-05-2018 21:24 Until: 27-05-2018 15:00 warning for: Thunderstorms Level: Yellow info button

Although rather usual in this region, locally or potentially dangerous phenomena are expected. (such as local winds, summer thunderstorms, rising streams or high waves) Be aware and pay attention to the latest weather updates, especially if you carry out activities exposed to weather or close to a stream or shoreline. 


Meteo18 Weather Cam more information Meteo18 Weather Cam


warning for Thunderstorms more information blitzortung!


Rain radar more information rain snow radar


Visit our other weather sites:

Template documentation
and downloads

And another site



Weather Underground History page Text

Daily Summary for October 24, 2016 Units:  Metric    English   Both
« Previous Day
Next Day »
Daily Weekly Monthly Yearly Custom
  High: Low: Average:
Temperature: -17.8 °C -11.1 °C -10.4 °C
Dew Point: -17.8 °C -11.4 °C -10.8 °C
Humidity: Humidity % 93 % 96 %
Wind Speed: 0 km/h 0 km/h 2.1 km/h
Wind Gust: 0 km/h - -
Wind:- - SSW
Pressure: 0 hPa 34154.6 hPa -
Precipitation: 568.96 mm    
Historical Graphs
 
 
Tabular Data for October 24, 2016
Time Temperature Dew Point Pressure Wind Wind Speed Wind Gust Humidity Rainfall Rate (Hourly)
-17.8 °C -17.8 °C 0 hPa Calm     Humidity % 0 mm
00:02 -10.7 °C -11.2 °C 34154.6 hPa Calm   5.1 km/h 95 % 0 mm
00:12 -10.8 °C -11.1 °C 34164.7 hPa Calm   2.6 km/h 96 % 0 mm
00:17 -10.8 °C -11.1 °C 34164.7 hPa Calm   2.6 km/h 96 % 0 mm
00:22 -10.7 °C -11 °C 34154.6 hPa NNE 5.1 km/h 5.1 km/h 96 % 0 mm
00:32 -10.7 °C -11 °C 34154.6 hPa NNE 2.6 km/h 5.1 km/h 96 % 0 mm
00:37 -10.7 °C -11 °C 34164.7 hPa Calm   5.1 km/h 96 % 0 mm
00:42 -10.7 °C -11.1 °C 34164.7 hPa Calm   5.1 km/h 96 % 0 mm
00:52 -10.8 °C -11.3 °C 34164.7 hPa Calm     95 % 0 mm
00:57 -10.8 °C -11.3 °C 34164.7 hPa WNW 5.1 km/h   95 % 0 mm
01:02 -10.8 °C -11.1 °C 34178.3 hPa Calm     96 % 0 mm
01:12 -10.8 °C -11.2 °C 34178.3 hPa NNW 2.6 km/h 5.1 km/h 96 % 0 mm
01:17 -10.7 °C -11.1 °C 34178.3 hPa NW 2.6 km/h 5.1 km/h 96 % 0 mm
01:22 -10.7 °C -11.1 °C 34178.3 hPa Calm   5.1 km/h 96 % 0 mm
01:27 -10.7 °C -11.1 °C 34178.3 hPa NNW 5.1 km/h 7.7 km/h 96 % 0 mm
01:32 -10.7 °C -10.9 °C 34178.3 hPa NE 5.1 km/h 7.7 km/h 97 % 0 mm
01:37 -10.6 °C -10.8 °C 34178.3 hPa North 2.6 km/h 7.7 km/h 97 % 0 mm
01:42 -10.5 °C -10.8 °C 34178.3 hPa Calm   7.7 km/h 97 % 0 mm
01:52 -10.5 °C -10.8 °C 34178.3 hPa Calm   7.7 km/h 96 % 0 mm
01:57 -10.5 °C -10.8 °C 34178.3 hPa NNW 5.1 km/h 5.1 km/h 96 % 0 mm
02:02 -10.4 °C -10.7 °C 34178.3 hPa NNW 5.1 km/h 5.1 km/h 96 % 0 mm
02:12 -10.4 °C -10.8 °C 34188.4 hPa WNW 2.6 km/h 5.1 km/h 95 % 0 mm
02:17 -10.4 °C -10.8 °C 34198.6 hPa Calm   5.1 km/h 95 % 0 mm
02:22 -10.4 °C -10.9 °C 34198.6 hPa Calm   7.7 km/h 95 % 0 mm
02:27 -10.4 °C -10.9 °C 34198.6 hPa WNW 2.6 km/h 7.7 km/h 95 % 7.62 mm
02:32 -10.4 °C -10.8 °C 34198.6 hPa Calm   7.7 km/h 96 % 7.62 mm
02:37 -10.4 °C -10.8 °C 34198.6 hPa Calm   7.7 km/h 96 % 7.62 mm
02:42 -10.5 °C -10.9 °C 34198.6 hPa Calm   7.7 km/h 95 % 7.62 mm
02:47 -10.4 °C -10.8 °C 34198.6 hPa Calm   5.1 km/h 96 % 7.62 mm
02:52 -10.3 °C -10.7 °C 34198.6 hPa Calm   5.1 km/h 96 % 7.62 mm
02:57 -10.3 °C -10.6 °C 34198.6 hPa Calm   5.1 km/h 96 % 7.62 mm
03:02 -10.2 °C -10.6 °C 34198.6 hPa NW 5.1 km/h 5.1 km/h 96 % 7.62 mm
03:12 -10.2 °C -10.6 °C 34198.6 hPa West 2.6 km/h 7.7 km/h 95 % 12.7 mm
03:17 -10.2 °C -10.7 °C 34212.1 hPa WNW 5.1 km/h 15.6 km/h 94 % 25.4 mm
03:22 -10.3 °C -10.8 °C 34212.1 hPa WSW 2.6 km/h 15.6 km/h 94 % 25.4 mm
03:27 -10.3 °C -10.8 °C 34212.1 hPa WNW 7.7 km/h 12.9 km/h 94 % 38.1 mm
03:32 -10.3 °C -10.9 °C 34212.1 hPa West 2.6 km/h 12.9 km/h 93 % 38.1 mm
03:37 -10.4 °C -11 °C 34212.1 hPa Calm   15.6 km/h 93 % 63.5 mm
03:42 -10.4 °C -11.1 °C 34212.1 hPa Calm   15.6 km/h 93 % 63.5 mm
03:52 -10.4 °C -11.1 °C 34198.6 hPa Calm   5.1 km/h 93 % 71.12 mm
03:57 -10.5 °C -11 °C 34188.4 hPa Calm     94 % 91.44 mm
04:02 -10.6 °C -11.1 °C 34188.4 hPa Calm     94 % 91.44 mm
04:12 -10.7 °C -11.1 °C 34188.4 hPa Calm     95 % 96.52 mm
04:17 -10.7 °C -11.2 °C 34178.3 hPa NNE 2.6 km/h 5.1 km/h 95 % 83.82 mm
04:22 -10.7 °C -11.2 °C 34178.3 hPa Calm   5.1 km/h 95 % 83.82 mm
04:32 -10.8 °C -11.2 °C 34178.3 hPa ENE 2.6 km/h 5.1 km/h 95 % 63.5 mm
04:37 -10.8 °C -11.1 °C 34178.3 hPa ENE 2.6 km/h 7.7 km/h 96 % 45.72 mm
04:42 -10.8 °C -11.1 °C 34178.3 hPa Calm   7.7 km/h 96 % 45.72 mm
04:47 -10.8 °C -11.2 °C 34178.3 hPa Calm   7.7 km/h 96 % 38.1 mm
04:52 -10.8 °C -11.2 °C 34178.3 hPa Calm   7.7 km/h 96 % 38.1 mm
05:02 -10.9 °C -11.2 °C 34178.3 hPa Calm   5.1 km/h 96 % 12.7 mm
05:12 -10.9 °C -11.2 °C 34178.3 hPa Calm   5.1 km/h 96 % 7.62 mm
05:17 -10.9 °C -11.2 °C 34188.4 hPa Calm   2.6 km/h 96 % 7.62 mm
05:22 -10.9 °C -11.2 °C 34188.4 hPa Calm   2.6 km/h 96 % 7.62 mm
05:32 -10.9 °C -11.2 °C 34188.4 hPa WNW 2.6 km/h 2.6 km/h 96 % 7.62 mm
05:37 -10.9 °C -11.3 °C 34188.4 hPa Calm   5.1 km/h 96 % 20.32 mm
05:42 -10.9 °C -11.3 °C 34198.6 hPa Calm   5.1 km/h 96 % 20.32 mm
05:47 -10.9 °C -11.3 °C 34188.4 hPa WNW 2.6 km/h 5.1 km/h 96 % 33.02 mm
05:57 -11 °C -11.3 °C 34188.4 hPa NNW 2.6 km/h 5.1 km/h 96 % 58.42 mm
06:02 -11 °C -11.3 °C 34178.3 hPa Calm   5.1 km/h 96 % 58.42 mm
06:12 -11 °C -11.3 °C 34178.3 hPa NE 5.1 km/h 5.1 km/h 96 % 58.42 mm
06:22 -11 °C -11.3 °C 34178.3 hPa Calm   7.7 km/h 96 % 58.42 mm
06:32 -11.1 °C -11.3 °C 34198.6 hPa Calm   7.7 km/h 97 % 58.42 mm
06:37 -11.1 °C -11.3 °C 34198.6 hPa Calm   7.7 km/h 97 % 58.42 mm
06:42 -11.1 °C -11.3 °C 34188.4 hPa North 2.6 km/h 2.6 km/h 97 % 38.1 mm
06:52 -11.1 °C -11.3 °C 34198.6 hPa WNW 2.6 km/h 2.6 km/h 97 % 38.1 mm
06:57 -11.1 °C -11.3 °C 34198.6 hPa Calm   7.7 km/h 97 % 25.4 mm
07:02 -11.1 °C -11.3 °C 34198.6 hPa WNW 2.6 km/h 7.7 km/h 97 % 25.4 mm
07:12 -11.1 °C -11.3 °C 34198.6 hPa Calm   5.1 km/h 97 % 38.1 mm
07:22 -11.1 °C -11.3 °C 34212.1 hPa Calm   5.1 km/h 97 % 58.42 mm
07:37 -11.1 °C -11.3 °C 34198.6 hPa Calm   5.1 km/h 97 % 83.82 mm
07:42 -11.1 °C -11.3 °C 34198.6 hPa Calm   5.1 km/h 97 % 104.14 mm
07:47 -11.1 °C -11.4 °C 34198.6 hPa Calm   5.1 km/h 97 % 104.14 mm
07:52 -11.1 °C -11.3 °C 34198.6 hPa NE 5.1 km/h 5.1 km/h 97 % 109.22 mm
07:57 -11.1 °C -11.4 °C 34198.6 hPa Calm   5.1 km/h 97 % 109.22 mm
08:02 -11.1 °C -11.4 °C 34188.4 hPa NNE 5.1 km/h 7.7 km/h 97 % 109.22 mm
08:12 -11.1 °C -11.4 °C 34198.6 hPa NNE 5.1 km/h 10.3 km/h 97 % 104.14 mm
08:17 -11.1 °C -11.4 °C 34198.6 hPa North 2.6 km/h 10.3 km/h 97 % 104.14 mm
08:22 -11.1 °C -11.4 °C 34212.1 hPa Calm   15.6 km/h 97 % 91.44 mm
08:32 -11.1 °C -11.4 °C 34198.6 hPa Calm   5.1 km/h 97 % 71.12 mm
08:37 -11.1 °C -11.4 °C 34212.1 hPa Calm   5.1 km/h 97 % 71.12 mm
08:42 -11.1 °C -11.4 °C 34212.1 hPa NE 5.1 km/h 5.1 km/h 97 % 58.42 mm
08:52 -11.1 °C -11.4 °C 34212.1 hPa NE 2.6 km/h 7.7 km/h 97 % 50.8 mm
08:57 -11.1 °C -11.4 °C 34212.1 hPa Calm   7.7 km/h 97 % 50.8 mm
09:02 -11.1 °C -11.4 °C 34222.3 hPa Calm   7.7 km/h 97 % 45.72 mm
09:12 -11.1 °C -11.3 °C 34235.8 hPa Calm   5.1 km/h 97 % 33.02 mm
09:17 -11.1 °C -11.3 °C 34235.8 hPa Calm   5.1 km/h 97 % 33.02 mm
09:22 -11.1 °C -11.3 °C 34246 hPa Calm   2.6 km/h 97 % 20.32 mm
09:32 -11.1 °C -11.3 °C 34246 hPa Calm   2.6 km/h 97 % 12.7 mm
09:42 -11.1 °C -11.3 °C 34246 hPa Calm   2.6 km/h 97 % 20.32 mm
09:47 -11.1 °C -11.3 °C 34235.8 hPa ENE 10.3 km/h 10.3 km/h 97 % 20.32 mm
09:52 -11.1 °C -11.3 °C 34222.3 hPa East 7.7 km/h 18.2 km/h 97 % 20.32 mm
10:02 -11 °C -11.3 °C 34235.8 hPa ENE 5.1 km/h 20.8 km/h 97 % 25.4 mm
10:12 -10.9 °C -11.2 °C 34222.3 hPa ENE 7.7 km/h 18.2 km/h 97 % 33.02 mm
10:17 -10.8 °C -11 °C 34222.3 hPa ENE 5.1 km/h 18.2 km/h 98 % 33.02 mm
10:22 -10.8 °C -10.9 °C 34235.8 hPa SE 5.1 km/h 18.2 km/h 98 % 38.1 mm
10:32 -10.7 °C -10.9 °C 34235.8 hPa East 2.6 km/h 10.3 km/h 98 % 38.1 mm
10:42 -10.7 °C -10.9 °C 34222.3 hPa ENE 7.7 km/h 7.7 km/h 97 % 33.02 mm
10:47 -10.6 °C -10.8 °C 34212.1 hPa NE 2.6 km/h 5.1 km/h 98 % 33.02 mm
10:52 -10.6 °C -10.9 °C 34222.3 hPa North 2.6 km/h 12.9 km/h 97 % 25.4 mm
10:57 -10.5 °C -10.7 °C 34222.3 hPa Calm   12.9 km/h 98 % 25.4 mm
11:02 -10.4 °C -10.6 °C 34222.3 hPa Calm   12.9 km/h 98 % 20.32 mm
11:12 -10.4 °C -10.7 °C 34235.8 hPa Calm   2.6 km/h 97 % 12.7 mm
11:17 -10.4 °C -10.7 °C 34235.8 hPa Calm   2.6 km/h 97 % 12.7 mm
11:22 -10.4 °C -10.7 °C 34246 hPa Calm   2.6 km/h 97 % 12.7 mm
11:32 -10.3 °C -10.6 °C 34246 hPa Calm     97 % 7.62 mm
11:42 -10.3 °C -10.6 °C 34256.2 hPa Calm     97 % 0 mm
11:52 -10.3 °C -10.6 °C 34256.2 hPa SW 2.6 km/h 5.1 km/h 97 % 0 mm
12:02 -10.3 °C -10.6 °C 34256.2 hPa South 2.6 km/h 5.1 km/h 97 % 7.62 mm
12:07 -10.2 °C -10.5 °C 34256.2 hPa South 2.6 km/h 5.1 km/h 97 % 7.62 mm
12:12 -10.2 °C -10.4 °C 34256.2 hPa South 5.1 km/h 10.3 km/h 97 % 7.62 mm
12:17 -10.2 °C -10.4 °C 34246 hPa Calm   10.3 km/h 97 % 7.62 mm
12:22 -10.2 °C -10.4 °C 34256.2 hPa SSW 2.6 km/h 7.7 km/h 97 % 7.62 mm
12:32 -10.1 °C -10.4 °C 34256.2 hPa Calm   7.7 km/h 97 % 7.62 mm
12:42 -10.1 °C -10.4 °C 34256.2 hPa Calm   7.7 km/h 97 % 7.62 mm
12:47 -10.1 °C -10.3 °C 34256.2 hPa Calm   7.7 km/h 97 % 7.62 mm
12:52 -10.1 °C -10.3 °C 34256.2 hPa SW 5.1 km/h 7.7 km/h 97 % 7.62 mm
12:57 -9.9 °C -10.2 °C 34269.7 hPa SSW 2.6 km/h 7.7 km/h 97 % 7.62 mm
13:02 -9.9 °C -10.2 °C 34269.7 hPa SW 2.6 km/h 7.7 km/h 97 % 7.62 mm
13:12 -9.9 °C -10.2 °C 34279.9 hPa South 10.3 km/h 10.3 km/h 97 % 7.62 mm
13:17 -9.9 °C -10.2 °C 34279.9 hPa SSW 2.6 km/h 15.6 km/h 97 % 7.62 mm
13:22 -9.8 °C -10.1 °C 34279.9 hPa South 2.6 km/h 15.6 km/h 97 % 7.62 mm
13:32 -9.8 °C -10.1 °C 34279.9 hPa SSW 10.3 km/h 15.6 km/h 97 % 7.62 mm
13:37 -9.8 °C -10.1 °C 34279.9 hPa SSW 5.1 km/h 12.9 km/h 97 % 7.62 mm
13:42 -9.8 °C -10.1 °C 34279.9 hPa SW 5.1 km/h 12.9 km/h 96 % 7.62 mm
13:47 -9.7 °C -10.1 °C 34279.9 hPa West 2.6 km/h 12.9 km/h 96 % 7.62 mm
14:02 -9.7 °C -10.1 °C 34279.9 hPa SSW 5.1 km/h 12.9 km/h 96 % 0 mm
14:12 -9.7 °C -10 °C 34293.4 hPa SW 5.1 km/h 12.9 km/h 96 % 0 mm
14:17 -9.7 °C -10 °C 34293.4 hPa WSW 10.3 km/h 20.8 km/h 96 % 0 mm
14:22 -9.7 °C -10.1 °C 34293.4 hPa WSW 5.1 km/h 20.8 km/h 96 % 0 mm
14:32 -9.7 °C -10.1 °C 34293.4 hPa WSW 5.1 km/h 20.8 km/h 96 % 7.62 mm
14:37 -9.8 °C -10.1 °C 34293.4 hPa West 2.6 km/h 10.3 km/h 96 % 12.7 mm
14:47 -9.8 °C -10.1 °C 34293.4 hPa SW 7.7 km/h 10.3 km/h 96 % 12.7 mm
14:52 -9.8 °C -10.1 °C 34293.4 hPa Calm   10.3 km/h 96 % 12.7 mm
14:57 -9.8 °C -10.1 °C 34293.4 hPa SW 10.3 km/h 10.3 km/h 96 % 12.7 mm
15:02 -9.8 °C -10.2 °C 34303.6 hPa WSW 10.3 km/h 10.3 km/h 96 % 12.7 mm
15:12 -9.8 °C -10.2 °C 34303.6 hPa WSW 5.1 km/h 12.9 km/h 96 % 12.7 mm
15:17 -9.8 °C -10.1 °C 34303.6 hPa SW 2.6 km/h 12.9 km/h 96 % 12.7 mm
15:27 -9.8 °C -10.1 °C 34313.7 hPa SW 7.7 km/h 12.9 km/h 96 % 12.7 mm
15:32 -9.8 °C -10.1 °C 34313.7 hPa SW 7.7 km/h 12.9 km/h 96 % 12.7 mm
15:42 -9.8 °C -10.2 °C 34313.7 hPa WSW 5.1 km/h 15.6 km/h 96 % 7.62 mm
15:47 -9.8 °C -10.2 °C 34303.6 hPa WNW 5.1 km/h 15.6 km/h 96 % 0 mm
15:52 -9.9 °C -10.3 °C 34303.6 hPa WNW 10.3 km/h 15.6 km/h 95 % 0 mm
16:02 -10.1 °C -10.5 °C 34313.7 hPa WNW 2.6 km/h 18.2 km/h 95 % 0 mm
16:12 -10.1 °C -10.6 °C 34313.7 hPa WSW 2.6 km/h 15.6 km/h 95 % 0 mm
16:17 -10.1 °C -10.6 °C 34327.3 hPa SW 2.6 km/h 12.9 km/h 95 % 7.62 mm
16:22 -10.1 °C -10.6 °C 34327.3 hPa West 5.1 km/h 10.3 km/h 95 % 7.62 mm
16:32 -10 °C -10.4 °C 34313.7 hPa Calm   12.9 km/h 95 % 7.62 mm
16:37 -9.9 °C -10.4 °C 34313.7 hPa Calm   7.7 km/h 95 % 7.62 mm
16:42 -9.9 °C -10.4 °C 34313.7 hPa Calm   7.7 km/h 95 % 7.62 mm
16:52 -9.9 °C -10.3 °C 34313.7 hPa WSW 2.6 km/h   95 % 7.62 mm
16:57 -9.8 °C -10.3 °C 34327.3 hPa Calm   5.1 km/h 95 % 7.62 mm
17:02 -9.8 °C -10.3 °C 34313.7 hPa Calm   5.1 km/h 94 % 7.62 mm
17:17 -9.8 °C -10.4 °C 34327.3 hPa WSW 2.6 km/h 5.1 km/h 93 % 0 mm
17:22 -9.8 °C -10.4 °C 34327.3 hPa WSW 2.6 km/h 5.1 km/h 93 % 0 mm
17:27 -9.8 °C -10.3 °C 34327.3 hPa SW 2.6 km/h 5.1 km/h 94 % 0 mm
17:32 -9.8 °C -10.3 °C 34337.4 hPa SW 2.6 km/h 5.1 km/h 94 % 0 mm
17:42 -9.8 °C -10.4 °C 34347.6 hPa WSW 5.1 km/h 10.3 km/h 94 % 0 mm
17:47 -9.8 °C -10.4 °C 34337.4 hPa Calm   10.3 km/h 94 % 0 mm
17:52 -9.9 °C -10.4 °C 34327.3 hPa Calm   10.3 km/h 94 % 0 mm
18:02 -9.9 °C -10.4 °C 34337.4 hPa Calm   10.3 km/h 94 % 7.62 mm
18:07 -9.9 °C -10.5 °C 34347.6 hPa Calm   2.6 km/h 94 % 12.7 mm
18:12 -9.9 °C -10.4 °C 34347.6 hPa SSE 5.1 km/h 5.1 km/h 95 % 12.7 mm
18:17 -9.9 °C -10.4 °C 34347.6 hPa East 2.6 km/h 2.6 km/h 95 % 12.7 mm
18:22 -10.1 °C -10.5 °C 34347.6 hPa Calm   5.1 km/h 95 % 12.7 mm
18:32 -10.1 °C -10.6 °C 34347.6 hPa Calm   5.1 km/h 95 % 25.4 mm
18:42 -10.1 °C -10.4 °C 34347.6 hPa Calm   2.6 km/h 96 % 25.4 mm
18:52 -10.2 °C -10.5 °C 34361.1 hPa West 2.6 km/h 2.6 km/h 96 % 33.02 mm
19:02 -10.2 °C -10.5 °C 34361.1 hPa Calm   7.7 km/h 96 % 20.32 mm
19:12 -10.2 °C -10.5 °C 34371.3 hPa Calm   7.7 km/h 96 % 20.32 mm
19:17 -10.2 °C -10.5 °C 34371.3 hPa Calm   5.1 km/h 96 % 20.32 mm
19:22 -10.2 °C -10.5 °C 34384.8 hPa Calm   5.1 km/h 96 % 20.32 mm
19:32 -10.2 °C -10.4 °C 34384.8 hPa SW 2.6 km/h 10.3 km/h 97 % 12.7 mm
19:37 -10.2 °C -10.4 °C 34384.8 hPa SW 2.6 km/h 10.3 km/h 97 % 33.02 mm
19:47 -10.2 °C -10.4 °C 34371.3 hPa Calm   10.3 km/h 97 % 38.1 mm
19:52 -10.2 °C -10.5 °C 34371.3 hPa Calm   10.3 km/h 97 % 38.1 mm
19:57 -10.2 °C -10.5 °C 34384.8 hPa Calm   2.6 km/h 97 % 38.1 mm
20:02 -10.3 °C -10.6 °C 34384.8 hPa Calm   2.6 km/h 97 % 38.1 mm
20:12 -10.3 °C -10.6 °C 34384.8 hPa Calm     97 % 38.1 mm
20:32 -10.3 °C -10.6 °C 34395 hPa SSW 2.6 km/h   97 % 33.02 mm
20:37 -10.3 °C -10.6 °C 34395 hPa Calm   5.1 km/h 97 % 12.7 mm
20:42 -10.3 °C -10.6 °C 34395 hPa Calm   5.1 km/h 97 % 12.7 mm
20:47 -10.3 °C -10.6 °C 34405.1 hPa SSW 5.1 km/h 5.1 km/h 97 % 7.62 mm
20:52 -10.4 °C -10.7 °C 34405.1 hPa Calm   5.1 km/h 97 % 7.62 mm
20:57 -10.4 °C -10.7 °C 34405.1 hPa Calm   5.1 km/h 97 % 12.7 mm
21:02 -10.4 °C -10.7 °C 34405.1 hPa Calm   5.1 km/h 97 % 12.7 mm
21:12 -10.4 °C -10.7 °C 34418.7 hPa Calm   5.1 km/h 97 % 20.32 mm
21:22 -10.4 °C -10.7 °C 34418.7 hPa Calm   5.1 km/h 97 % 33.02 mm
21:32 -10.4 °C -10.7 °C 34418.7 hPa South 2.6 km/h   97 % 38.1 mm
21:37 -10.4 °C -10.7 °C 34418.7 hPa NNE 2.6 km/h 2.6 km/h 97 % 38.1 mm
21:47 -10.4 °C -10.7 °C 34418.7 hPa Calm   2.6 km/h 97 % 45.72 mm
21:52 -10.4 °C -10.7 °C 34428.8 hPa Calm   2.6 km/h 97 % 45.72 mm
22:07 -10.4 °C -10.7 °C 34442.4 hPa Calm     97 % 33.02 mm
22:17 -10.5 °C -10.8 °C 34428.8 hPa Calm     97 % 25.4 mm
22:22 -10.4 °C -10.7 °C 34428.8 hPa Calm   2.6 km/h 97 % 25.4 mm
22:32 -10.4 °C -10.7 °C 34442.4 hPa Calm   2.6 km/h 97 % 20.32 mm
22:37 -10.4 °C -10.7 °C 34442.4 hPa Calm   2.6 km/h 97 % 12.7 mm
22:42 -10.4 °C -10.7 °C 34452.6 hPa Calm   2.6 km/h 97 % 12.7 mm
22:47 -10.5 °C -10.8 °C 34452.6 hPa Calm   2.6 km/h 97 % 12.7 mm
22:57 -10.5 °C -10.8 °C 34452.6 hPa Calm   2.6 km/h 97 % 12.7 mm
23:02 -10.5 °C -10.8 °C 34452.6 hPa Calm   2.6 km/h 97 % 12.7 mm
23:12 -10.6 °C -10.8 °C 34452.6 hPa Calm   2.6 km/h 97 % 12.7 mm
23:17 -10.6 °C -10.8 °C 34452.6 hPa Calm   2.6 km/h 97 % 12.7 mm
23:27 -10.5 °C -10.7 °C 34462.7 hPa Calm   7.7 km/h 98 % 12.7 mm
23:32 -10.5 °C -10.7 °C 34452.6 hPa Calm   7.7 km/h 98 % 12.7 mm
23:42 -10.5 °C -10.7 °C 34452.6 hPa SW 5.1 km/h 7.7 km/h 98 % 12.7 mm
23:47 -10.5 °C -10.7 °C 34462.7 hPa SSW 5.1 km/h 5.1 km/h 98 % 7.62 mm
Meteo18
Compliments of Weather Underground - 4 mb

Script developed by  Jim McMurry - jmcmurry@mwt.net Adapted for the template by  Wim van der Kuil - Leuven-Template.eu

You find our weather info also at:

European Weather Network

Weather Underground

Equipment we use:

Weather-station
Davis Vue

Weather-program
Meteobridge

Weather-server
Raspberry PI 2 B+

Provider
1 and 1

Davis Vue

Meteobridge

Raspberry PI 2 B+

1 and 1